Pine Grove, New York
Current Conditions -  °F | °C
As of 12:58 PM on Thursday 30 Oct 2014 (Local Time) from KGTB Reporting Station
Overcast Overcast  
Wind Chill: 39°   Ceiling: 2700
Heat Index: 43°   Visibility: 10mi
Dew Point: 32°   Wind: 6mph
Humidity: 65%   Direction: 290°WNW
Pressure: 30.02"   Gusts: NA
Location:  43.7232°N, 75.2497°W
Report Text: KGTB 301658Z AUTO 29005KT 10SM OVC027 06/00 A3002 RMK AO2 SLP170 T00611001
Loading
Personal Weather Stations






























Interactive Weather Map New forecast layout! Learn more

10-Day Weather Forecast

Advertisements
Track Severe Weather on mobile